createdAt,value
2022-08-01T00:02:00.250Z,16.70
2022-08-01T00:04:27.330Z,16.70
2022-08-01T00:06:54.338Z,16.70
2022-08-01T00:09:23.757Z,16.70
2022-08-01T00:12:08.217Z,16.70
2022-08-01T00:14:36.032Z,16.70
2022-08-01T00:17:07.229Z,16.70
2022-08-01T00:19:34.816Z,16.70
2022-08-01T00:22:02.594Z,16.70
2022-08-01T00:24:29.745Z,16.70
2022-08-01T00:26:56.732Z,16.70
2022-08-01T00:30:09.829Z,16.70
2022-08-01T00:32:11.192Z,16.70
2022-08-01T00:34:38.734Z,16.70
2022-08-01T00:37:05.736Z,16.70
2022-08-01T00:39:32.934Z,16.60
2022-08-01T00:42:06.805Z,16.60
2022-08-01T00:44:34.233Z,16.60
2022-08-01T00:47:01.992Z,16.60
2022-08-01T00:49:29.478Z,16.60
2022-08-01T00:51:57.224Z,16.60
2022-08-01T00:54:26.157Z,16.60
2022-08-01T00:56:54.191Z,16.60
2022-08-01T00:59:23.493Z,16.60
2022-08-01T01:01:53.685Z,16.60
2022-08-01T01:04:20.910Z,16.60
2022-08-01T01:06:59.609Z,16.60
2022-08-01T01:09:40.372Z,16.60
2022-08-01T01:12:26.153Z,16.60
2022-08-01T01:15:05.572Z,16.60
2022-08-01T01:17:50.216Z,16.60
2022-08-01T01:20:22.461Z,16.60
2022-08-01T01:22:56.997Z,16.60
2022-08-01T01:25:24.204Z,16.60
2022-08-01T01:27:56.242Z,16.60
2022-08-01T01:30:25.605Z,16.50
2022-08-01T01:32:54.542Z,16.50
2022-08-01T01:35:26.941Z,16.50
2022-08-01T01:38:09.897Z,16.50
2022-08-01T01:40:38.102Z,16.50
2022-08-01T01:43:09.929Z,16.50
2022-08-01T01:45:37.539Z,16.50
2022-08-01T01:48:06.392Z,16.50
2022-08-01T01:50:34.799Z,16.50
2022-08-01T01:53:03.715Z,16.50
2022-08-01T01:55:31.641Z,16.60
2022-08-01T01:58:00.225Z,16.60
2022-08-01T02:00:29.380Z,16.60
2022-08-01T02:02:58.009Z,16.60
2022-08-01T02:05:26.985Z,16.60
2022-08-01T02:07:59.420Z,16.60
2022-08-01T02:10:28.393Z,16.60
2022-08-01T02:12:57.773Z,16.60
2022-08-01T02:15:26.020Z,16.70
2022-08-01T02:17:55.186Z,16.70
2022-08-01T02:20:22.406Z,16.70
2022-08-01T02:23:02.589Z,16.70
2022-08-01T02:25:35.417Z,16.70
2022-08-01T02:28:07.004Z,16.80
2022-08-01T02:30:38.258Z,16.80
2022-08-01T02:33:31.651Z,16.80
2022-08-01T02:36:29.788Z,16.70
2022-08-01T02:38:49.454Z,16.70
2022-08-01T02:41:21.744Z,16.70
2022-08-01T02:43:53.417Z,16.70
2022-08-01T02:46:30.725Z,16.70
2022-08-01T02:49:01.939Z,16.70
2022-08-01T02:51:31.891Z,16.70
2022-08-01T02:54:01.099Z,16.70
2022-08-01T02:56:29.420Z,16.70
2022-08-01T02:58:56.948Z,16.70
2022-08-01T03:01:27.063Z,16.70
2022-08-01T03:03:56.773Z,16.70
2022-08-01T03:06:25.555Z,16.70
2022-08-01T03:08:54.773Z,16.70
2022-08-01T03:11:24.749Z,16.70
2022-08-01T03:13:54.822Z,16.70
2022-08-01T03:16:25.228Z,16.80
2022-08-01T03:18:54.685Z,16.80
2022-08-01T03:21:24.188Z,16.80
2022-08-01T03:23:55.208Z,16.80
2022-08-01T03:26:23.259Z,16.90
2022-08-01T03:28:52.454Z,16.90
2022-08-01T03:31:19.760Z,16.90
2022-08-01T03:33:47.262Z,16.90
2022-08-01T03:36:15.654Z,17.00
2022-08-01T03:38:46.456Z,17.00
2022-08-01T03:41:19.436Z,17.00
2022-08-01T03:43:58.665Z,17.00
2022-08-01T03:46:41.385Z,17.00
2022-08-01T03:49:14.084Z,17.10
2022-08-01T03:51:42.014Z,17.10
2022-08-01T03:54:11.743Z,17.10
2022-08-01T03:56:39.391Z,17.10
2022-08-01T03:59:07.393Z,17.10
2022-08-01T04:01:35.496Z,17.20
2022-08-01T04:04:03.009Z,17.20
2022-08-01T04:06:30.580Z,17.20
2022-08-01T04:08:57.653Z,17.30
2022-08-01T04:11:26.487Z,17.30
2022-08-01T04:13:55.341Z,17.30
2022-08-01T04:16:23.341Z,17.30
2022-08-01T04:18:50.698Z,17.30
2022-08-01T04:21:26.654Z,17.30
2022-08-01T04:23:55.002Z,17.30
2022-08-01T04:26:24.045Z,17.30
2022-08-01T04:28:55.025Z,17.40
2022-08-01T04:31:23.642Z,17.40
2022-08-01T04:33:53.896Z,17.40
2022-08-01T04:36:24.298Z,17.40
2022-08-01T04:38:56.864Z,17.40
2022-08-01T04:41:24.894Z,17.50
2022-08-01T04:43:53.164Z,17.50
2022-08-01T04:46:20.632Z,17.50
2022-08-01T04:48:48.436Z,17.60
2022-08-01T04:51:17.348Z,17.60
2022-08-01T04:53:45.696Z,17.70
2022-08-01T04:56:13.910Z,17.70
2022-08-01T04:58:42.269Z,17.70
2022-08-01T05:01:10.325Z,17.80
2022-08-01T05:03:39.112Z,17.90
2022-08-01T05:06:07.059Z,18.00
2022-08-01T05:08:34.218Z,18.00
2022-08-01T05:11:01.275Z,18.00
2022-08-01T05:13:28.464Z,18.10
2022-08-01T05:15:55.745Z,18.20
2022-08-01T05:18:27.915Z,18.30
2022-08-01T05:20:56.008Z,18.40
2022-08-01T05:23:34.179Z,18.50
2022-08-01T05:26:14.554Z,18.60
2022-08-01T05:28:42.718Z,18.80
2022-08-01T05:31:09.775Z,18.90
2022-08-01T05:33:37.336Z,19.00
2022-08-01T05:36:04.758Z,19.10
2022-08-01T05:38:31.742Z,19.20
2022-08-01T05:40:59.071Z,19.30
2022-08-01T05:43:28.970Z,19.40
2022-08-01T05:45:56.538Z,19.50
2022-08-01T05:48:23.859Z,19.70
2022-08-01T05:50:54.700Z,19.80
2022-08-01T05:53:25.452Z,20.00
2022-08-01T05:55:52.912Z,20.10
2022-08-01T05:58:19.949Z,20.10
2022-08-01T06:00:47.419Z,20.20
2022-08-01T06:03:14.947Z,20.20
2022-08-01T06:05:41.987Z,20.30
2022-08-01T06:08:09.184Z,20.50
2022-08-01T06:10:36.377Z,20.90
2022-08-01T06:13:03.462Z,21.30
2022-08-01T06:15:31.989Z,21.60
2022-08-01T06:17:59.584Z,21.70
2022-08-01T06:20:26.728Z,21.90
2022-08-01T06:22:54.142Z,22.80
2022-08-01T06:25:22.683Z,23.90
2022-08-01T06:27:50.027Z,24.70
2022-08-01T06:30:17.443Z,25.60
2022-08-01T06:32:44.762Z,25.60
2022-08-01T06:35:12.116Z,25.10
2022-08-01T06:37:39.625Z,24.60
2022-08-01T06:40:13.395Z,24.10
2022-08-01T06:42:43.710Z,23.60
2022-08-01T06:45:11.975Z,23.30
2022-08-01T06:47:43.806Z,23.00
2022-08-01T06:50:12.549Z,23.10
2022-08-01T06:52:39.808Z,23.20
2022-08-01T06:55:07.223Z,23.30
2022-08-01T06:57:34.610Z,23.20
2022-08-01T07:00:07.000Z,23.20
2022-08-01T07:02:34.067Z,23.10
2022-08-01T07:05:01.528Z,23.00
2022-08-01T07:07:32.203Z,22.80
2022-08-01T07:09:59.260Z,22.70
2022-08-01T07:12:26.509Z,22.60
2022-08-01T07:14:53.668Z,22.50
2022-08-01T07:17:20.870Z,22.50
2022-08-01T07:19:49.020Z,22.40
2022-08-01T07:22:23.190Z,22.30
2022-08-01T07:24:54.613Z,22.30
2022-08-01T07:27:25.671Z,22.20
2022-08-01T07:29:53.871Z,22.00
2022-08-01T07:32:21.049Z,21.80
2022-08-01T07:34:48.213Z,21.60
2022-08-01T07:37:15.816Z,21.50
2022-08-01T07:39:42.904Z,21.40
2022-08-01T07:42:10.534Z,21.30
2022-08-01T07:44:38.318Z,21.20
2022-08-01T07:47:06.452Z,21.30
2022-08-01T07:49:39.588Z,21.20
2022-08-01T07:52:07.904Z,21.20
2022-08-01T07:54:35.451Z,21.30
2022-08-01T07:57:03.691Z,21.50
2022-08-01T07:59:31.297Z,21.80
2022-08-01T08:01:58.462Z,22.40
2022-08-01T08:04:25.950Z,22.80
2022-08-01T08:06:53.313Z,23.60
2022-08-01T08:09:20.504Z,24.10
2022-08-01T08:11:48.472Z,24.10
2022-08-01T08:14:17.088Z,23.90
2022-08-01T08:16:44.769Z,23.70
2022-08-01T08:19:12.313Z,23.50
2022-08-01T08:21:39.870Z,23.30
2022-08-01T08:24:08.460Z,23.20
2022-08-01T08:26:36.303Z,23.10
2022-08-01T08:29:03.807Z,23.00
2022-08-01T08:31:51.819Z,22.90
2022-08-01T08:34:18.697Z,23.00
2022-08-01T08:36:47.854Z,23.50
2022-08-01T08:39:15.562Z,23.90
2022-08-01T08:41:44.991Z,24.20
2022-08-01T08:44:18.071Z,24.40
2022-08-01T08:46:50.639Z,24.40
2022-08-01T08:49:23.833Z,24.40
2022-08-01T08:51:53.024Z,24.40
2022-08-01T08:54:31.212Z,24.50
2022-08-01T08:57:00.633Z,24.90
2022-08-01T08:59:28.564Z,25.60
2022-08-01T09:01:55.898Z,25.90
2022-08-01T09:04:25.866Z,26.30
2022-08-01T09:06:54.964Z,26.50
2022-08-01T09:09:22.050Z,26.80
2022-08-01T09:11:57.396Z,27.00
2022-08-01T09:14:26.485Z,27.00
2022-08-01T09:17:08.002Z,27.00
2022-08-01T09:19:46.020Z,26.90
2022-08-01T09:22:15.848Z,26.80
2022-08-01T09:24:42.955Z,26.60
2022-08-01T09:27:22.789Z,26.50
2022-08-01T09:30:00.988Z,26.30
2022-08-01T09:32:36.046Z,26.00
2022-08-01T09:35:23.564Z,25.80
2022-08-01T09:37:50.941Z,25.50
2022-08-01T09:40:18.330Z,25.40
2022-08-01T09:42:45.423Z,25.40
2022-08-01T09:45:41.175Z,25.40
2022-08-01T09:48:12.376Z,25.30
2022-08-01T09:50:48.216Z,25.20
2022-08-01T09:53:29.463Z,25.20
2022-08-01T09:56:10.462Z,25.30
2022-08-01T09:59:02.043Z,25.40
2022-08-01T10:01:44.321Z,25.60
2022-08-01T10:04:17.131Z,25.80
2022-08-01T10:06:50.638Z,25.90
2022-08-01T10:09:35.939Z,26.00
2022-08-01T10:12:09.091Z,25.90
2022-08-01T10:14:46.775Z,25.80
2022-08-01T10:17:19.969Z,25.70
2022-08-01T10:19:49.562Z,25.60
2022-08-01T10:22:18.641Z,25.50
2022-08-01T10:24:48.522Z,25.40
2022-08-01T10:27:24.464Z,25.30
2022-08-01T10:30:19.221Z,25.30
2022-08-01T10:32:55.119Z,25.40
2022-08-01T10:35:45.945Z,25.60
2022-08-01T10:38:13.566Z,25.70
2022-08-01T10:40:43.233Z,25.80
2022-08-01T10:43:14.201Z,25.80
2022-08-01T10:45:50.726Z,25.70
2022-08-01T10:48:44.178Z,25.60
2022-08-01T10:51:17.816Z,25.50
2022-08-01T10:53:54.003Z,25.40
2022-08-01T10:56:27.274Z,25.40
2022-08-01T10:59:11.634Z,25.50
2022-08-01T11:01:44.698Z,25.70
2022-08-01T11:04:16.966Z,25.70
2022-08-01T11:07:18.423Z,25.90
2022-08-01T11:09:51.937Z,26.00
2022-08-01T11:12:23.375Z,26.00
2022-08-01T11:15:02.548Z,25.80
2022-08-01T11:17:31.396Z,25.60
2022-08-01T11:20:12.957Z,25.40
2022-08-01T11:23:00.230Z,25.30
2022-08-01T11:26:05.165Z,25.20
2022-08-01T11:28:32.592Z,25.00
2022-08-01T11:31:13.988Z,24.90
2022-08-01T11:33:41.653Z,24.90
2022-08-01T11:36:12.347Z,24.80
2022-08-01T11:38:44.122Z,24.80
2022-08-01T11:41:38.120Z,24.80
2022-08-01T11:44:06.367Z,25.00
2022-08-01T11:46:58.803Z,25.10
2022-08-01T11:49:35.356Z,25.10
2022-08-01T11:52:05.721Z,25.10
2022-08-01T11:54:51.487Z,25.20
2022-08-01T11:57:34.010Z,25.20
2022-08-01T12:00:08.348Z,25.20
2022-08-01T12:02:36.296Z,25.20
2022-08-01T12:05:12.325Z,25.00
2022-08-01T12:07:41.694Z,25.00
2022-08-01T12:10:14.656Z,24.90
2022-08-01T12:12:48.650Z,24.90
2022-08-01T12:15:16.770Z,24.80
2022-08-01T12:17:57.935Z,24.90
2022-08-01T12:20:31.197Z,24.90
2022-08-01T12:23:02.386Z,24.90
2022-08-01T12:25:30.118Z,24.80
2022-08-01T12:28:05.482Z,24.90
2022-08-01T12:30:34.159Z,25.10
2022-08-01T12:33:01.818Z,25.20
2022-08-01T12:35:30.224Z,25.30
2022-08-01T12:38:00.497Z,25.20
2022-08-01T12:40:30.030Z,25.20
2022-08-01T12:42:59.795Z,25.10
2022-08-01T12:45:31.144Z,25.10
2022-08-01T12:47:58.796Z,25.00
2022-08-01T12:50:28.278Z,24.90
2022-08-01T12:52:56.218Z,24.90
2022-08-01T12:55:24.830Z,24.90
2022-08-01T12:58:20.700Z,24.80
2022-08-01T13:00:49.809Z,24.80
2022-08-01T13:03:19.532Z,24.70
2022-08-01T13:05:46.565Z,24.70
2022-08-01T13:08:25.820Z,24.70
2022-08-01T13:11:03.823Z,24.80
2022-08-01T13:13:40.067Z,25.00
2022-08-01T13:16:12.451Z,25.10
2022-08-01T13:18:50.555Z,25.20
2022-08-01T13:21:20.075Z,25.20
2022-08-01T13:24:06.776Z,25.20
2022-08-01T13:26:51.248Z,25.20
2022-08-01T13:29:22.855Z,25.40
2022-08-01T13:31:50.529Z,25.50
2022-08-01T13:34:17.894Z,25.60
2022-08-01T13:36:49.478Z,25.70
2022-08-01T13:39:17.250Z,25.70
2022-08-01T13:41:44.842Z,25.60
2022-08-01T13:44:12.145Z,25.50
2022-08-01T13:46:49.318Z,25.30
2022-08-01T13:49:18.979Z,25.20
2022-08-01T13:51:46.676Z,25.10
2022-08-01T13:54:13.771Z,25.00
2022-08-01T13:56:40.903Z,24.90
2022-08-01T13:59:08.740Z,24.90
2022-08-01T14:01:36.480Z,25.00
2022-08-01T14:04:03.977Z,25.00
2022-08-01T14:06:32.749Z,25.00
2022-08-01T14:08:59.784Z,25.00
2022-08-01T14:11:30.546Z,25.00
2022-08-01T14:14:05.235Z,25.00
2022-08-01T14:16:38.541Z,25.00
2022-08-01T14:19:06.205Z,25.00
2022-08-01T14:21:33.218Z,25.00
2022-08-01T14:24:00.337Z,25.00
2022-08-01T14:26:27.622Z,25.00
2022-08-01T14:28:54.650Z,25.00
2022-08-01T14:31:21.941Z,25.00
2022-08-01T14:33:49.510Z,25.00
2022-08-01T14:36:29.402Z,25.00
2022-08-01T14:39:00.725Z,25.10
2022-08-01T14:41:31.123Z,25.20
2022-08-01T14:43:58.813Z,25.20
2022-08-01T14:46:26.413Z,25.20
2022-08-01T14:48:53.527Z,25.20
2022-08-01T14:51:20.801Z,25.20
2022-08-01T14:53:50.679Z,25.20
2022-08-01T14:56:18.511Z,25.00
2022-08-01T14:58:45.718Z,25.00
2022-08-01T15:01:13.409Z,24.80
2022-08-01T15:03:40.480Z,24.70
2022-08-01T15:06:07.660Z,24.60
2022-08-01T15:08:34.994Z,24.60
2022-08-01T15:11:02.108Z,24.30
2022-08-01T15:13:29.303Z,24.10
2022-08-01T15:16:00.204Z,23.80
2022-08-01T15:18:28.922Z,23.70
2022-08-01T15:20:56.555Z,23.40
2022-08-01T15:23:24.355Z,23.30
2022-08-01T15:25:51.364Z,23.30
2022-08-01T15:28:18.616Z,23.40
2022-08-01T15:30:46.111Z,23.50
2022-08-01T15:33:13.159Z,23.50
2022-08-01T15:35:40.614Z,23.70
2022-08-01T15:38:08.107Z,23.80
2022-08-01T15:40:35.253Z,23.90
2022-08-01T15:43:02.782Z,23.90
2022-08-01T15:45:46.793Z,23.90
2022-08-01T15:48:14.935Z,23.80
2022-08-01T15:50:42.410Z,23.70
2022-08-01T15:53:09.419Z,23.80
2022-08-01T15:55:37.376Z,23.70
2022-08-01T15:58:06.436Z,23.60
2022-08-01T16:00:39.119Z,23.60
2022-08-01T16:03:10.563Z,23.60
2022-08-01T16:05:42.754Z,23.60
2022-08-01T16:08:14.528Z,23.60
2022-08-01T16:10:42.220Z,23.60
2022-08-01T16:13:10.056Z,23.50
2022-08-01T16:15:38.118Z,23.50
2022-08-01T16:18:09.716Z,23.40
2022-08-01T16:20:40.261Z,23.30
2022-08-01T16:23:12.606Z,23.20
2022-08-01T16:25:40.185Z,23.00
2022-08-01T16:28:07.462Z,23.00
2022-08-01T16:30:35.103Z,22.90
2022-08-01T16:33:05.537Z,22.80
2022-08-01T16:35:47.490Z,22.80
2022-08-01T16:38:17.132Z,22.60
2022-08-01T16:40:47.458Z,22.60
2022-08-01T16:43:16.114Z,22.50
2022-08-01T16:45:43.431Z,22.40
2022-08-01T16:48:12.273Z,22.40
2022-08-01T16:50:39.974Z,22.30
2022-08-01T16:53:07.247Z,22.30
2022-08-01T16:55:49.542Z,22.30
2022-08-01T16:58:22.294Z,22.20
2022-08-01T17:00:57.776Z,22.20
2022-08-01T17:03:47.067Z,22.20
2022-08-01T17:06:19.898Z,22.10
2022-08-01T17:08:50.512Z,22.00
2022-08-01T17:11:17.519Z,22.00
2022-08-01T17:13:44.657Z,22.00
2022-08-01T17:16:12.252Z,22.00
2022-08-01T17:18:39.434Z,21.90
2022-08-01T17:21:06.642Z,21.90
2022-08-01T17:23:34.167Z,21.90
2022-08-01T17:26:01.227Z,21.80
2022-08-01T17:28:28.240Z,21.80
2022-08-01T17:30:55.802Z,21.80
2022-08-01T17:33:22.828Z,21.80
2022-08-01T17:35:50.341Z,21.70
2022-08-01T17:38:18.013Z,21.70
2022-08-01T17:40:45.201Z,21.60
2022-08-01T17:43:13.747Z,21.60
2022-08-01T17:45:50.398Z,21.60
2022-08-01T17:48:19.061Z,21.50
2022-08-01T17:50:48.406Z,21.50
2022-08-01T17:53:21.226Z,21.50
2022-08-01T17:55:55.276Z,21.40
2022-08-01T17:58:33.025Z,21.40
2022-08-01T18:01:14.563Z,21.40
2022-08-01T18:03:42.032Z,21.40
2022-08-01T18:06:10.803Z,21.30
2022-08-01T18:08:38.147Z,21.30
2022-08-01T18:11:05.161Z,21.30
2022-08-01T18:13:32.251Z,21.20
2022-08-01T18:16:01.121Z,21.20
2022-08-01T18:18:33.755Z,21.20
2022-08-01T18:21:02.387Z,21.10
2022-08-01T18:23:29.486Z,21.10
2022-08-01T18:25:56.469Z,21.00
2022-08-01T18:28:32.321Z,21.00
2022-08-01T18:31:01.165Z,20.90
2022-08-01T18:33:28.684Z,20.80
2022-08-01T18:35:55.681Z,20.80
2022-08-01T18:38:29.708Z,20.80
2022-08-01T18:40:56.807Z,20.70
2022-08-01T18:43:23.810Z,20.70
2022-08-01T18:45:51.230Z,20.70
2022-08-01T18:48:18.275Z,20.60
2022-08-01T18:50:45.269Z,20.50
2022-08-01T18:53:12.782Z,20.50
2022-08-01T18:55:39.809Z,20.40
2022-08-01T18:58:06.879Z,20.40
2022-08-01T19:00:34.652Z,20.40
2022-08-01T19:03:01.633Z,20.30
2022-08-01T19:05:28.709Z,20.20
2022-08-01T19:08:06.344Z,20.10
2022-08-01T19:10:43.674Z,20.10
2022-08-01T19:13:11.301Z,20.10
2022-08-01T19:15:38.941Z,20.00
2022-08-01T19:18:06.257Z,20.00
2022-08-01T19:20:33.914Z,19.90
2022-08-01T19:23:00.984Z,19.90
2022-08-01T19:25:28.131Z,19.80
2022-08-01T19:27:58.559Z,19.80
2022-08-01T19:30:26.253Z,19.70
2022-08-01T19:32:56.126Z,19.70
2022-08-01T19:35:24.659Z,19.70
2022-08-01T19:37:54.215Z,19.70
2022-08-01T19:40:26.779Z,19.60
2022-08-01T19:42:57.074Z,19.60
2022-08-01T19:45:28.565Z,19.60
2022-08-01T19:47:57.804Z,19.50
2022-08-01T19:50:29.485Z,19.50
2022-08-01T19:52:57.011Z,19.40
2022-08-01T19:55:25.225Z,19.40
2022-08-01T20:00:41.614Z,19.30
2022-08-01T20:03:10.423Z,19.30
2022-08-01T20:05:38.040Z,19.20
2022-08-01T20:08:07.039Z,19.20
2022-08-01T20:10:34.597Z,19.20
2022-08-01T20:13:02.297Z,19.10
2022-08-01T20:15:29.625Z,19.10
2022-08-01T20:18:00.363Z,19.10
2022-08-01T20:20:28.199Z,19.10
2022-08-01T20:22:57.360Z,19.10
2022-08-01T20:25:34.949Z,19.00
2022-08-01T20:28:11.985Z,19.00
2022-08-01T20:30:41.223Z,19.00
2022-08-01T20:33:10.281Z,18.90
2022-08-01T20:35:52.244Z,18.90
2022-08-01T20:38:27.723Z,18.80
2022-08-01T20:40:56.833Z,18.80
2022-08-01T20:43:24.436Z,18.80
2022-08-01T20:45:51.511Z,18.80
2022-08-01T20:48:19.077Z,18.70
2022-08-01T20:50:54.102Z,18.70
2022-08-01T20:53:23.282Z,18.70
2022-08-01T20:55:59.506Z,18.70
2022-08-01T20:59:00.533Z,18.60
2022-08-01T21:01:30.918Z,18.60
2022-08-01T21:04:28.686Z,18.60
2022-08-01T21:07:08.681Z,18.60
2022-08-01T21:09:39.648Z,18.60
2022-08-01T21:12:12.682Z,18.60
2022-08-01T21:15:01.688Z,18.60
2022-08-01T21:17:37.537Z,18.50
2022-08-01T21:20:06.631Z,18.50
2022-08-01T21:22:58.577Z,18.40
2022-08-01T21:25:29.807Z,18.40
2022-08-01T21:28:00.086Z,18.40
2022-08-01T21:30:31.668Z,18.30
2022-08-01T21:33:01.625Z,18.30
2022-08-01T21:35:28.663Z,18.30
2022-08-01T21:38:00.359Z,18.30
2022-08-01T21:40:27.695Z,18.30
2022-08-01T21:42:55.324Z,18.20
2022-08-01T21:45:25.543Z,18.20
2022-08-01T21:47:53.843Z,18.20
2022-08-01T21:50:21.660Z,18.20
2022-08-01T21:53:15.879Z,18.20
2022-08-01T21:56:36.440Z,18.10
2022-08-01T21:59:38.311Z,18.10
2022-08-01T22:02:15.711Z,18.10
2022-08-01T22:04:58.788Z,18.10
2022-08-01T22:07:27.478Z,18.10
2022-08-01T22:09:57.485Z,18.10
2022-08-01T22:12:24.791Z,18.10
2022-08-01T22:14:55.809Z,18.10
2022-08-01T22:17:24.563Z,18.10
2022-08-01T22:19:53.803Z,18.00
2022-08-01T22:22:50.474Z,18.00
2022-08-01T22:25:13.009Z,18.00
2022-08-01T22:28:06.593Z,18.00
2022-08-01T22:30:29.108Z,17.90
2022-08-01T22:33:07.330Z,17.80
2022-08-01T22:35:44.193Z,17.80
2022-08-01T22:38:11.599Z,17.80
2022-08-01T22:40:47.792Z,17.80
2022-08-01T22:43:24.403Z,17.70
2022-08-01T22:46:17.094Z,17.70
2022-08-01T22:49:17.177Z,17.70
2022-08-01T22:51:56.783Z,17.70
2022-08-01T22:54:38.711Z,17.60
2022-08-01T22:57:11.902Z,17.60
2022-08-01T22:59:54.202Z,17.60
2022-08-01T23:02:22.805Z,17.60
2022-08-01T23:04:53.370Z,17.60
2022-08-01T23:07:28.073Z,17.60
2022-08-01T23:09:56.902Z,17.60
2022-08-01T23:12:25.629Z,17.50
2022-08-01T23:14:57.538Z,17.60
2022-08-01T23:17:28.755Z,17.50
2022-08-01T23:20:06.902Z,17.50
2022-08-01T23:22:36.032Z,17.50
2022-08-01T23:25:12.564Z,17.40
2022-08-01T23:28:04.251Z,17.40
2022-08-01T23:30:35.191Z,17.30
2022-08-01T23:33:02.870Z,17.30
2022-08-01T23:35:30.171Z,17.30
2022-08-01T23:37:58.581Z,17.20
2022-08-01T23:40:34.578Z,17.20
2022-08-01T23:43:02.999Z,17.10
2022-08-01T23:45:38.203Z,17.10
2022-08-01T23:48:18.000Z,17.10
2022-08-01T23:50:45.161Z,17.10
2022-08-01T23:53:12.837Z,17.00
2022-08-01T23:55:40.664Z,17.00
2022-08-01T23:58:11.514Z,17.00
